createdAt,value
2017-04-20T00:00:26.286Z,0
2017-04-20T00:01:28.686Z,0
2017-04-20T00:02:31.644Z,0
2017-04-20T00:03:34.055Z,-0.1
2017-04-20T00:04:36.514Z,-0.2
2017-04-20T00:05:38.900Z,-0.3
2017-04-20T00:06:41.543Z,-0.2
2017-04-20T00:07:43.945Z,-0.2
2017-04-20T00:08:46.432Z,-0.4
2017-04-20T00:09:48.878Z,-0.4
2017-04-20T00:10:51.295Z,-0.3
2017-04-20T00:11:53.736Z,-0.2
2017-04-20T00:12:56.153Z,-0.2
2017-04-20T00:13:58.562Z,-0.1
2017-04-20T00:15:00.971Z,-0.1
2017-04-20T00:16:03.453Z,-0.2
2017-04-20T00:17:05.957Z,-0.2
2017-04-20T00:18:08.380Z,-0.1
2017-04-20T00:19:10.853Z,-0.1
2017-04-20T00:20:13.216Z,-0.2
2017-04-20T00:21:16.416Z,-0.2
2017-04-20T00:22:19.909Z,-0.3
2017-04-20T00:23:22.304Z,-0.3
2017-04-20T00:24:24.776Z,-0.3
2017-04-20T00:25:27.174Z,-0.3
2017-04-20T00:26:29.522Z,-0.3
2017-04-20T00:27:31.959Z,-0.4
2017-04-20T00:28:34.616Z,-0.4
2017-04-20T00:29:37.077Z,-0.4
2017-04-20T00:30:39.495Z,-0.4
2017-04-20T00:31:41.886Z,-0.4
2017-04-20T00:32:44.324Z,-0.6
2017-04-20T00:33:46.720Z,-0.6
2017-04-20T00:34:49.144Z,-0.7
2017-04-20T00:35:51.547Z,-0.6
2017-04-20T00:36:54.625Z,-0.6
2017-04-20T00:37:57.021Z,-0.6
2017-04-20T00:38:59.483Z,-0.6
2017-04-20T00:40:01.904Z,-0.6
2017-04-20T00:41:04.277Z,-0.6
2017-04-20T00:42:06.734Z,-0.5
2017-04-20T00:43:09.766Z,-0.5
2017-04-20T00:44:12.112Z,-0.5
2017-04-20T00:45:14.534Z,-0.5
2017-04-20T00:46:17.603Z,-0.6
2017-04-20T00:47:20.006Z,-0.6
2017-04-20T00:48:22.370Z,-0.5
2017-04-20T00:49:24.795Z,-0.6
2017-04-20T00:50:27.805Z,-0.8
2017-04-20T00:51:30.253Z,-0.8
2017-04-20T00:52:32.664Z,-0.6
2017-04-20T00:53:35.484Z,-0.6
2017-04-20T00:54:37.848Z,-0.5
2017-04-20T00:55:40.262Z,-0.6
2017-04-20T00:56:42.637Z,-0.7
2017-04-20T00:57:45.053Z,-0.7
2017-04-20T00:58:47.522Z,-0.9
2017-04-20T00:59:49.916Z,-0.6
2017-04-20T01:00:52.309Z,-0.7
2017-04-20T01:01:54.730Z,-0.7
2017-04-20T01:02:57.143Z,-0.8
2017-04-20T01:03:59.517Z,-0.8
2017-04-20T01:05:01.978Z,-0.8
2017-04-20T01:06:04.392Z,-1.1
2017-04-20T01:07:06.806Z,-0.8
2017-04-20T01:08:09.172Z,-0.8
2017-04-20T01:09:11.518Z,-0.8
2017-04-20T01:10:13.941Z,-0.8
2017-04-20T01:11:16.408Z,-0.8
2017-04-20T01:12:18.871Z,-0.7
2017-04-20T01:13:21.286Z,-0.7
2017-04-20T01:14:23.647Z,-0.7
2017-04-20T01:15:26.044Z,-0.7
2017-04-20T01:16:28.548Z,-0.8
2017-04-20T01:17:30.935Z,-0.9
2017-04-20T01:18:33.295Z,-0.8
2017-04-20T01:19:35.734Z,-0.8
2017-04-20T01:20:38.152Z,-0.9
2017-04-20T01:21:40.864Z,-0.9
2017-04-20T01:22:44.376Z,-1
2017-04-20T01:23:46.859Z,-0.9
2017-04-20T01:24:49.319Z,-0.9
2017-04-20T01:25:55.099Z,-0.8
2017-04-20T01:26:57.584Z,-0.8
2017-04-20T01:27:59.925Z,-0.8
2017-04-20T01:29:02.408Z,-0.9
2017-04-20T01:30:04.790Z,-0.9
2017-04-20T01:31:07.171Z,-1.1
2017-04-20T01:32:09.667Z,-0.9
2017-04-20T01:33:12.270Z,-0.9
2017-04-20T01:34:14.652Z,-0.9
2017-04-20T01:35:17.081Z,-1
2017-04-20T01:36:19.544Z,-0.9
2017-04-20T01:37:21.934Z,-0.9
2017-04-20T01:38:24.283Z,-1.1
2017-04-20T01:39:26.693Z,-1.2
2017-04-20T01:40:29.060Z,-1.2
2017-04-20T01:41:31.604Z,-1.2
2017-04-20T01:42:34.084Z,-1.2
2017-04-20T01:43:37.161Z,-1.1
2017-04-20T01:44:39.531Z,-1.1
2017-04-20T01:45:41.928Z,-1
2017-04-20T01:46:44.329Z,-1
2017-04-20T01:47:47.036Z,-1.1
2017-04-20T01:48:49.830Z,-1
2017-04-20T01:49:52.375Z,-1
2017-04-20T01:50:54.795Z,-0.9
2017-04-20T01:51:57.600Z,-0.9
2017-04-20T01:53:00.268Z,-1
2017-04-20T01:54:02.658Z,-1.2
2017-04-20T01:55:05.435Z,-1.3
2017-04-20T01:56:07.824Z,-1.3
2017-04-20T01:57:10.190Z,-1.2
2017-04-20T01:58:12.605Z,-1.1
2017-04-20T01:59:15.319Z,-1.1
2017-04-20T02:00:17.734Z,-1
2017-04-20T02:01:21.725Z,-1
2017-04-20T02:02:24.098Z,-1
2017-04-20T02:03:26.557Z,-1
2017-04-20T02:04:29.023Z,-1.4
2017-04-20T02:05:31.382Z,-1.6
2017-04-20T02:06:33.816Z,-1.5
2017-04-20T02:07:36.209Z,-1.3
2017-04-20T02:08:47.639Z,-1.2
2017-04-20T02:09:50.013Z,-1.2
2017-04-20T02:10:52.401Z,-1.4
2017-04-20T02:11:54.844Z,-1.4
2017-04-20T02:12:57.206Z,-1.4
2017-04-20T02:13:59.636Z,-1.2
2017-04-20T02:15:02.086Z,-1.2
2017-04-20T02:16:04.496Z,-1.3
2017-04-20T02:17:06.907Z,-1.3
2017-04-20T02:18:09.274Z,-1.1
2017-04-20T02:19:12.175Z,-1.1
2017-04-20T02:20:14.521Z,-1.1
2017-04-20T02:21:17.185Z,-1.1
2017-04-20T02:22:19.587Z,-1.2
2017-04-20T02:23:21.977Z,-1.3
2017-04-20T02:24:24.349Z,-1.3
2017-04-20T02:25:26.740Z,-1.2
2017-04-20T02:26:29.765Z,-1.4
2017-04-20T02:27:32.113Z,-1.3
2017-04-20T02:28:34.497Z,-1.3
2017-04-20T02:29:36.926Z,-1.4
2017-04-20T02:30:39.332Z,-1.5
2017-04-20T02:31:41.680Z,-1.5
2017-04-20T02:32:44.057Z,-1.5
2017-04-20T02:33:46.440Z,-1.5
2017-04-20T02:34:49.245Z,-1.4
2017-04-20T02:35:51.600Z,-1.3
2017-04-20T02:36:54.001Z,-1.4
2017-04-20T02:37:56.415Z,-1.4
2017-04-20T02:38:58.861Z,-1.4
2017-04-20T02:40:01.451Z,-1.4
2017-04-20T02:41:03.865Z,-1.5
2017-04-20T02:42:06.231Z,-1.5
2017-04-20T02:43:08.628Z,-1.5
2017-04-20T02:44:10.992Z,-1.5
2017-04-20T02:45:13.425Z,-1.6
2017-04-20T02:46:15.780Z,-1.6
2017-04-20T02:47:18.137Z,-1.5
2017-04-20T02:48:20.622Z,-1.5
2017-04-20T02:49:23.010Z,-1.6
2017-04-20T02:50:25.450Z,-1.6
2017-04-20T02:51:27.793Z,-1.6
2017-04-20T02:52:30.145Z,-1.6
2017-04-20T02:53:32.531Z,-1.5
2017-04-20T02:54:34.952Z,-1.7
2017-04-20T02:55:37.342Z,-1.7
2017-04-20T02:56:39.804Z,-1.7
2017-04-20T02:57:42.203Z,-1.7
2017-04-20T02:58:44.600Z,-1.7
2017-04-20T02:59:46.981Z,-1.6
2017-04-20T03:00:49.384Z,-1.7
2017-04-20T03:01:51.798Z,-1.7
2017-04-20T03:02:54.190Z,-1.8
2017-04-20T03:03:56.585Z,-1.7
2017-04-20T03:04:59.112Z,-1.9
2017-04-20T03:06:02.113Z,-1.7
2017-04-20T03:07:04.491Z,-1.7
2017-04-20T03:08:06.920Z,-1.7
2017-04-20T03:09:09.284Z,-1.7
2017-04-20T03:10:11.652Z,-1.6
2017-04-20T03:11:14.072Z,-1.6
2017-04-20T03:12:16.437Z,-1.8
2017-04-20T03:13:18.824Z,-2.1
2017-04-20T03:14:21.238Z,-1.7
2017-04-20T03:15:24.116Z,-1.7
2017-04-20T03:16:26.497Z,-1.8
2017-04-20T03:17:28.960Z,-1.8
2017-04-20T03:18:31.329Z,-1.8
2017-04-20T03:19:33.692Z,-1.8
2017-04-20T03:20:36.066Z,-1.8
2017-04-20T03:21:38.888Z,-1.9
2017-04-20T03:22:41.264Z,-1.9
2017-04-20T03:23:43.665Z,-1.9
2017-04-20T03:24:46.290Z,-1.9
2017-04-20T03:25:48.635Z,-1.9
2017-04-20T03:26:51.046Z,-1.9
2017-04-20T03:27:53.425Z,-1.9
2017-04-20T03:28:55.791Z,-1.9
2017-04-20T03:29:58.199Z,-1.9
2017-04-20T03:31:00.632Z,-1.9
2017-04-20T03:32:03.083Z,-1.9
2017-04-20T03:33:05.493Z,-1.9
2017-04-20T03:34:07.990Z,-1.9
2017-04-20T03:35:10.373Z,-2.1
2017-04-20T03:36:12.751Z,-2.1
2017-04-20T03:37:15.356Z,-2.1
2017-04-20T03:38:17.762Z,-2.1
2017-04-20T03:39:20.172Z,-2
2017-04-20T03:40:22.552Z,-1.9
2017-04-20T03:41:24.914Z,-2
2017-04-20T03:42:27.326Z,-2.1
2017-04-20T03:43:29.841Z,-2
2017-04-20T03:44:32.244Z,-1.9
2017-04-20T03:45:34.910Z,-2
2017-04-20T03:46:37.356Z,-2
2017-04-20T03:47:40.500Z,-2
2017-04-20T03:48:42.882Z,-2
2017-04-20T03:49:45.225Z,-2
2017-04-20T03:50:47.641Z,-2.1
2017-04-20T03:51:50.900Z,-2
2017-04-20T03:52:53.918Z,-2
2017-04-20T03:53:56.258Z,-2
2017-04-20T03:54:58.626Z,-2
2017-04-20T03:56:01.062Z,-2.1
2017-04-20T03:57:03.429Z,-2.2
2017-04-20T03:58:05.823Z,-2
2017-04-20T03:59:08.219Z,-2.2
2017-04-20T04:00:10.602Z,-2.2
2017-04-20T04:01:13.115Z,-2.1
2017-04-20T04:02:15.477Z,-2
2017-04-20T04:03:17.844Z,-2
2017-04-20T04:04:20.290Z,-1.9
2017-04-20T04:05:22.722Z,-1.9
2017-04-20T04:06:25.091Z,-1.9
2017-04-20T04:07:27.557Z,-2.1
2017-04-20T04:08:29.948Z,-1.9
2017-04-20T04:09:32.388Z,-1.9
2017-04-20T04:10:34.772Z,-1.9
2017-04-20T04:11:37.170Z,-1.9
2017-04-20T04:12:39.538Z,-1.9
2017-04-20T04:13:42.858Z,-1.8
2017-04-20T04:14:46.753Z,-1.8
2017-04-20T04:15:49.132Z,-1.7
2017-04-20T04:16:51.578Z,-1.8
2017-04-20T04:17:54.042Z,-1.9
2017-04-20T04:18:56.494Z,-1.9
2017-04-20T04:19:58.876Z,-2
2017-04-20T04:21:01.406Z,-2
2017-04-20T04:22:03.837Z,-2
2017-04-20T04:23:06.217Z,-2
2017-04-20T04:24:08.635Z,-2
2017-04-20T04:25:11.869Z,-1.9
2017-04-20T04:26:16.178Z,-2
2017-04-20T04:27:18.704Z,-2
2017-04-20T04:28:21.067Z,-1.9
2017-04-20T04:29:23.597Z,-1.9
2017-04-20T04:30:26.651Z,-1.9
2017-04-20T04:31:30.097Z,-1.8
2017-04-20T04:32:32.723Z,-1.8
2017-04-20T04:33:35.135Z,-1.7
2017-04-20T04:34:37.605Z,-1.8
2017-04-20T04:35:40.433Z,-1.8
2017-04-20T04:36:42.793Z,-1.7
2017-04-20T04:37:45.155Z,-1.7
2017-04-20T04:38:47.515Z,-1.5
2017-04-20T04:39:50.422Z,-1.2
2017-04-20T04:40:52.870Z,-0.9
2017-04-20T04:41:55.282Z,-1.1
2017-04-20T04:42:57.715Z,-1.2
2017-04-20T04:44:00.147Z,-1.2
2017-04-20T04:45:02.628Z,-1.1
2017-04-20T04:46:13.956Z,-1.1
2017-04-20T04:47:16.417Z,-1.3
2017-04-20T04:48:18.849Z,-1.1
2017-04-20T04:49:21.327Z,-1.1
2017-04-20T04:50:24.366Z,-1.1
2017-04-20T04:51:26.761Z,-1.5
2017-04-20T04:52:32.326Z,-1.5
2017-04-20T04:53:34.704Z,-1.1
2017-04-20T04:54:37.114Z,-1
2017-04-20T04:55:39.778Z,-0.7
2017-04-20T07:09:22.579Z,21
2017-04-20T07:10:26.453Z,22.1
2017-04-20T07:11:29.262Z,21.2
2017-04-20T07:12:37.383Z,21.2
2017-04-20T07:13:43.569Z,22.1
2017-04-20T07:14:47.479Z,22.5
2017-04-20T07:15:50.137Z,23.5
2017-04-20T07:16:54.018Z,24.1
2017-04-20T07:17:56.662Z,20.4
2017-04-20T07:18:59.308Z,22.3
2017-04-20T07:20:02.486Z,22.4
2017-04-20T07:21:05.055Z,21.5
2017-04-20T07:22:07.720Z,22.2
2017-04-20T07:23:10.319Z,22.2
2017-04-20T07:24:15.755Z,19.6
2017-04-20T07:25:18.241Z,21.9
2017-04-20T07:26:20.773Z,23.4
2017-04-20T07:27:23.205Z,23.7
2017-04-20T07:28:25.819Z,23.8
2017-04-20T07:29:29.314Z,21.4
2017-04-20T07:30:31.837Z,23.4
2017-04-20T07:31:36.019Z,23.6
2017-04-20T07:32:38.465Z,23.1
2017-04-20T07:33:41.282Z,21.1
2017-04-20T07:34:43.889Z,23
2017-04-20T07:35:46.405Z,19.8
2017-04-20T07:36:48.917Z,18.1
2017-04-20T07:37:51.400Z,15.9
2017-04-20T07:38:54.147Z,20.6
2017-04-20T07:39:56.740Z,21.9
2017-04-20T07:40:59.150Z,22.2
2017-04-20T07:42:01.602Z,22
2017-04-20T07:43:04.155Z,23.9
2017-04-20T07:44:06.696Z,25.5
2017-04-20T07:45:09.283Z,25.9
2017-04-20T07:46:12.261Z,24.5
2017-04-20T07:47:14.720Z,21
2017-04-20T07:48:17.216Z,23.3
2017-04-20T07:49:19.786Z,24.5
2017-04-20T07:50:22.291Z,22.6
2017-04-20T07:51:24.872Z,18.8
2017-04-20T07:52:27.560Z,18.9
2017-04-20T07:53:30.125Z,22.5
2017-04-20T07:54:32.740Z,23.8
2017-04-20T07:55:35.289Z,24.1
2017-04-20T07:56:37.757Z,24.5
2017-04-20T07:57:40.358Z,22.7
2017-04-20T07:58:42.940Z,19.7
2017-04-20T07:59:45.413Z,20.3
2017-04-20T08:00:47.940Z,21.7
2017-04-20T08:01:52.600Z,23.7
2017-04-20T08:02:55.399Z,23.2
2017-04-20T08:03:57.882Z,18.7
2017-04-20T08:05:00.353Z,20
2017-04-20T08:06:03.005Z,23.6
2017-04-20T08:07:06.010Z,26
2017-04-20T08:08:08.575Z,25.8
2017-04-20T08:09:11.321Z,26.1
2017-04-20T08:10:13.991Z,27.2
2017-04-20T08:11:16.616Z,25
2017-04-20T08:12:19.166Z,25.2
2017-04-20T08:13:21.699Z,27.4
2017-04-20T08:14:24.238Z,25.3
2017-04-20T08:16:38.301Z,21.6
2017-04-20T08:17:40.686Z,20.3
2017-04-20T08:18:43.276Z,19.1
2017-04-20T08:19:45.926Z,23
2017-04-20T08:20:48.525Z,22.3
2017-04-20T08:21:50.992Z,19.9
2017-04-20T08:22:53.455Z,24.5
2017-04-20T08:23:56.516Z,24.8
2017-04-20T08:24:58.957Z,26.5
2017-04-20T08:26:01.398Z,25.2
2017-04-20T08:27:03.992Z,26.6
2017-04-20T08:28:06.664Z,27.4
2017-04-20T08:29:09.469Z,26
2017-04-20T08:30:13.714Z,23.9
2017-04-20T08:31:16.274Z,20.7
2017-04-20T08:32:18.827Z,24.2
2017-04-20T08:33:23.116Z,25
2017-04-20T08:34:25.778Z,24.2
2017-04-20T08:35:28.695Z,26.3
2017-04-20T08:36:31.267Z,27.1
2017-04-20T08:37:33.749Z,28.4
2017-04-20T08:38:36.289Z,24
2017-04-20T08:39:38.785Z,24.9
2017-04-20T08:40:41.920Z,26.7
2017-04-20T08:41:44.370Z,27.5
2017-04-20T08:42:46.861Z,26.1
2017-04-20T08:43:49.391Z,23.8
2017-04-20T08:44:52.434Z,20.8
2017-04-20T08:45:55.174Z,23.9
2017-04-20T08:46:57.859Z,24.7
2017-04-20T08:48:00.410Z,26.3
2017-04-20T08:49:02.977Z,24.3
2017-04-20T08:50:05.957Z,22.5
2017-04-20T08:51:08.569Z,22.5
2017-04-20T08:52:11.020Z,21.1
2017-04-20T08:53:13.587Z,21.4
2017-04-20T08:54:16.425Z,24.8
2017-04-20T08:55:19.095Z,21.8
2017-04-20T08:56:21.654Z,20.2
2017-04-20T08:57:24.878Z,19.6
2017-04-20T08:58:27.446Z,24.6
2017-04-20T08:59:30.037Z,21.3
2017-04-20T09:00:32.628Z,23.1
2017-04-20T09:01:35.268Z,23.5
2017-04-20T09:02:38.283Z,21.2
2017-04-20T09:03:40.831Z,25.1
2017-04-20T09:04:43.420Z,26
2017-04-20T09:05:45.987Z,26.6
2017-04-20T09:06:48.648Z,25.4
2017-04-20T09:07:51.189Z,24.5
2017-04-20T09:08:53.792Z,24.8
2017-04-20T09:09:56.364Z,24.2
2017-04-20T09:10:58.857Z,18.5
2017-04-20T09:12:01.555Z,20.7
2017-04-20T09:13:04.136Z,23.9
2017-04-20T09:14:06.796Z,20
2017-04-20T09:15:09.341Z,20.4
2017-04-20T09:16:11.917Z,23.2
2017-04-20T09:17:14.524Z,24
2017-04-20T09:18:17.135Z,24.1
2017-04-20T09:19:19.698Z,24.1
2017-04-20T09:20:22.335Z,23.7
2017-04-20T09:21:24.850Z,23.5
2017-04-20T09:22:27.472Z,23.6
2017-04-20T09:23:30.175Z,21.7
2017-04-20T09:24:32.731Z,18.1
2017-04-20T09:25:35.291Z,16.5
2017-04-20T09:26:37.841Z,18.8
2017-04-20T09:27:40.577Z,20.5
2017-04-20T09:28:43.209Z,17.2
2017-04-20T09:29:45.804Z,20.4
2017-04-20T09:30:48.400Z,21.5
2017-04-20T09:31:51.032Z,21.3
2017-04-20T09:32:53.626Z,21.4
2017-04-20T09:33:56.311Z,23
2017-04-20T09:34:59.698Z,17.1
2017-04-20T09:36:02.265Z,19.2
2017-04-20T09:37:04.909Z,20.4
2017-04-20T09:38:07.821Z,20.8
2017-04-20T09:39:10.882Z,21.7
2017-04-20T09:40:14.066Z,21.9
2017-04-20T09:41:16.723Z,22.2
2017-04-20T09:42:20.182Z,22.9
2017-04-20T09:43:22.987Z,20.8
2017-04-20T09:44:25.834Z,18.9
2017-04-20T09:45:29.436Z,15.3
2017-04-20T09:46:33.364Z,15.7
2017-04-20T09:47:36.051Z,19.2
2017-04-20T09:48:39.104Z,20.4
2017-04-20T09:49:42.826Z,20.1
2017-04-20T09:50:47.332Z,21.4
2017-04-20T09:51:50.947Z,22.1
2017-04-20T09:52:53.804Z,22.5
2017-04-20T09:53:57.522Z,19.8
2017-04-20T09:55:00.468Z,21.1
2017-04-20T09:56:03.612Z,22.9
2017-04-20T09:57:06.337Z,22.9
2017-04-20T09:58:09.077Z,22.8
2017-04-20T09:59:12.014Z,22
2017-04-20T10:00:14.616Z,23.5
2017-04-20T10:01:17.524Z,23.4
2017-04-20T10:02:21.484Z,23.1
2017-04-20T10:03:24.233Z,22.9
2017-04-20T10:04:27.315Z,22.9
2017-04-20T10:05:30.249Z,23.8
2017-04-20T10:06:33.173Z,17.6
2017-04-20T10:07:36.862Z,16.3
2017-04-20T10:08:41.466Z,18.2
2017-04-20T10:09:44.342Z,18.2
2017-04-20T10:10:47.134Z,20
2017-04-20T10:11:50.258Z,19.3
2017-04-20T10:12:53.124Z,16.8
2017-04-20T10:13:56.167Z,17
2017-04-20T10:14:58.762Z,19.1
2017-04-20T10:16:01.498Z,18.8
2017-04-20T10:17:04.581Z,19.7
2017-04-20T10:18:09.067Z,19.8
2017-04-20T10:19:12.420Z,18.9
2017-04-20T10:20:14.955Z,19.9
2017-04-20T10:21:17.661Z,18.5
2017-04-20T10:22:21.603Z,18.2
2017-04-20T10:23:24.934Z,18.9
2017-04-20T10:24:28.391Z,17.9
2017-04-20T10:25:32.414Z,16.9
2017-04-20T10:26:35.929Z,17.7
2017-04-20T10:27:39.448Z,18.7
2017-04-20T10:28:43.000Z,19
2017-04-20T10:29:46.514Z,12.8
2017-04-20T10:30:50.470Z,10.3
2017-04-20T10:31:54.449Z,8.8
2017-04-20T10:32:57.630Z,9.7
2017-04-20T10:34:01.555Z,11.2
2017-04-20T10:35:04.413Z,12
2017-04-20T10:36:07.453Z,11.7
2017-04-20T10:37:10.460Z,13.8
2017-04-20T10:38:13.430Z,14.7
2017-04-20T10:39:17.021Z,12.9
2017-04-20T10:40:21.691Z,13.7
2017-04-20T10:41:25.421Z,12.6
2017-04-20T10:42:28.870Z,13.3
2017-04-20T10:43:32.183Z,14.2
2017-04-20T10:44:35.448Z,14.7
2017-04-20T10:45:38.660Z,15.2
2017-04-20T10:46:44.003Z,15.2
2017-04-20T10:47:49.702Z,15.2
2017-04-20T10:48:52.537Z,14.2
2017-04-20T10:49:56.136Z,15
2017-04-20T10:51:02.227Z,15.1
2017-04-20T10:52:09.869Z,15.4
2017-04-20T10:53:14.907Z,15.5
2017-04-20T10:54:19.724Z,15.3
2017-04-20T10:55:24.032Z,15.8
2017-04-20T10:56:29.513Z,16.1
2017-04-20T10:57:36.003Z,16.3
2017-04-20T10:58:41.777Z,16.7
2017-04-20T10:59:47.150Z,16.7
2017-04-20T11:00:51.944Z,16.7
2017-04-20T11:01:57.255Z,16.1
2017-04-20T11:03:02.689Z,16
2017-04-20T11:04:08.933Z,14.4
2017-04-20T11:05:21.663Z,15.3
2017-04-20T11:06:36.740Z,14.4
2017-04-20T11:07:45.062Z,14.9
2017-04-20T11:08:53.509Z,14.5
2017-04-20T11:10:00.943Z,13.4
2017-04-20T11:11:06.948Z,13.7
2017-04-20T11:12:12.959Z,14.1
2017-04-20T11:13:19.340Z,14.3
2017-04-20T11:14:26.708Z,14.5
2017-04-20T11:15:35.555Z,14.5
2017-04-20T11:16:42.243Z,12.2
2017-04-20T11:17:49.602Z,13.4
2017-04-20T11:18:55.936Z,13.9
2017-04-20T11:20:01.660Z,13.7
2017-04-20T11:21:06.401Z,13.4
2017-04-20T11:22:13.060Z,13.7
2017-04-20T11:23:23.062Z,13.7
2017-04-20T11:24:31.784Z,13.8
2017-04-20T11:25:36.987Z,14.2
2017-04-20T11:26:42.894Z,14.6
2017-04-20T11:27:49.055Z,15.9
2017-04-20T11:28:55.865Z,15.6
2017-04-20T11:30:00.868Z,15.6
2017-04-20T11:31:05.733Z,14.4
2017-04-20T11:32:10.460Z,13.5
2017-04-20T11:33:13.623Z,12.4
2017-04-20T11:34:16.790Z,12.2
2017-04-20T11:35:20.891Z,12.7
2017-04-20T11:36:27.479Z,11.8
2017-04-20T11:37:34.372Z,12.6
2017-04-20T11:38:47.049Z,13.6
2017-04-20T11:39:57.542Z,12.6
2017-04-20T11:41:06.256Z,13.7
2017-04-20T11:42:12.865Z,12.4
2017-04-20T11:43:20.402Z,11.8
2017-04-20T11:44:28.909Z,11.9
2017-04-20T11:45:35.514Z,10.7
2017-04-20T11:46:41.984Z,11.3
2017-04-20T11:47:49.317Z,12
2017-04-20T11:48:58.013Z,12.4
2017-04-20T11:50:06.341Z,12.6
2017-04-20T11:51:15.113Z,12.1
2017-04-20T11:52:22.821Z,12.2
2017-04-20T11:53:30.265Z,12.4
2017-04-20T11:54:37.619Z,12.8
2017-04-20T11:55:45.311Z,13.5
2017-04-20T11:56:53.319Z,14
2017-04-20T11:58:02.437Z,13
2017-04-20T11:59:11.269Z,12.9
2017-04-20T12:00:18.550Z,13.3
2017-04-20T12:01:26.741Z,14.2
2017-04-20T12:02:35.147Z,14.5
2017-04-20T12:03:47.772Z,15.1
2017-04-20T12:04:54.312Z,13
2017-04-20T12:06:01.300Z,13.9
2017-04-20T12:07:08.531Z,14.4
2017-04-20T12:08:16.747Z,14.7
2017-04-20T12:09:22.716Z,14.2
2017-04-20T12:10:31.704Z,13.8
2017-04-20T12:11:44.861Z,12
2017-04-20T12:12:52.928Z,13.1
2017-04-20T12:14:09.059Z,13.8
2017-04-20T12:15:19.409Z,13.3
2017-04-20T12:16:27.698Z,12.6
2017-04-20T12:17:35.659Z,12.5
2017-04-20T12:18:45.083Z,11.5
2017-04-20T12:19:53.471Z,10.2
2017-04-20T12:21:01.085Z,9.8
2017-04-20T12:22:08.508Z,9.5
2017-04-20T12:23:15.236Z,10.4
2017-04-20T12:24:22.164Z,11.2
2017-04-20T12:25:28.139Z,11.5
2017-04-20T12:26:34.526Z,10.8
2017-04-20T12:27:44.278Z,11.2
2017-04-20T12:28:52.384Z,11.1
2017-04-20T12:30:02.837Z,11.9
2017-04-20T12:31:09.265Z,12.1
2017-04-20T12:32:16.337Z,11.4
2017-04-20T12:33:23.953Z,11.9
2017-04-20T12:34:31.129Z,12.8
2017-04-20T12:35:39.498Z,12.3
2017-04-20T12:36:49.362Z,12.7
2017-04-20T12:38:00.005Z,13.5
2017-04-20T12:40:28.148Z,13.6
2017-04-20T12:41:35.106Z,14.6
2017-04-20T12:42:43.717Z,14.9
2017-04-20T12:43:53.173Z,14.9
2017-04-20T12:45:01.388Z,15.1
2017-04-20T12:46:07.380Z,14.5
2017-04-20T12:47:14.244Z,14.2
2017-04-20T12:48:24.095Z,14.5
2017-04-20T12:49:32.199Z,14.2
2017-04-20T12:50:41.904Z,14.5
2017-04-20T12:51:48.866Z,14.1
2017-04-20T12:52:56.949Z,13.8
2017-04-20T12:54:03.545Z,14.2
2017-04-20T12:55:09.972Z,14.5
2017-04-20T12:56:15.528Z,15.2
2017-04-20T12:57:21.599Z,14
2017-04-20T12:58:28.454Z,14.3
2017-04-20T12:59:34.899Z,14.9
2017-04-20T13:00:42.099Z,13.9
2017-04-20T13:01:48.758Z,14.3
2017-04-20T13:02:58.261Z,14.4
2017-04-20T13:04:06.414Z,14.7
2017-04-20T13:05:15.048Z,14.8
2017-04-20T13:06:29.124Z,14.8
2017-04-20T13:07:37.470Z,14.5
2017-04-20T13:08:46.784Z,14.7
2017-04-20T13:09:56.855Z,14.8
2017-04-20T13:11:06.015Z,14.6
2017-04-20T13:12:13.574Z,14.2
2017-04-20T13:13:25.516Z,15
2017-04-20T13:14:37.384Z,15.1
2017-04-20T13:15:47.237Z,15.5
2017-04-20T13:16:57.299Z,14.6
2017-04-20T13:18:04.008Z,14.7
2017-04-20T13:19:14.951Z,14.6
2017-04-20T13:20:25.354Z,14.7
2017-04-20T13:21:33.217Z,15.2
2017-04-20T13:22:41.388Z,15.1
2017-04-20T13:23:49.963Z,14.9
2017-04-20T13:24:59.342Z,14.8
2017-04-20T13:26:08.298Z,14.9
2017-04-20T13:27:19.843Z,14.5
2017-04-20T13:28:29.120Z,13.3
2017-04-20T13:29:41.164Z,13.6
2017-04-20T13:30:50.617Z,14.1
2017-04-20T13:31:59.437Z,14.4
2017-04-20T13:33:09.500Z,13.9
2017-04-20T13:34:18.763Z,12.7
2017-04-20T13:35:25.284Z,13.3
2017-04-20T13:36:30.457Z,12.7
2017-04-20T13:37:40.995Z,13.7
2017-04-20T13:38:46.337Z,14
2017-04-20T13:39:53.136Z,14.3
2017-04-20T13:40:59.281Z,14.1
2017-04-20T13:42:07.378Z,14.1
2017-04-20T13:43:17.554Z,14.7
2017-04-20T13:44:30.299Z,14
2017-04-20T13:45:39.544Z,13.4
2017-04-20T13:46:47.398Z,14
2017-04-20T13:48:00.624Z,14.2
2017-04-20T13:49:13.868Z,14.3
2017-04-20T13:50:23.826Z,14.7
2017-04-20T13:51:34.782Z,14.6
2017-04-20T13:52:47.131Z,14.3
2017-04-20T13:53:56.048Z,14.3
2017-04-20T13:55:06.498Z,13.8
2017-04-20T13:57:32.914Z,13.7
2017-04-20T13:58:42.064Z,13.9
2017-04-20T13:59:52.434Z,13.9
2017-04-20T14:01:00.711Z,13.5
2017-04-20T14:02:09.264Z,13.8
2017-04-20T14:03:18.616Z,14.1
2017-04-20T14:04:26.675Z,13.9
2017-04-20T14:05:35.455Z,13.4
2017-04-20T14:06:45.329Z,13.6
2017-04-20T14:07:54.396Z,13.6
2017-04-20T14:09:04.437Z,13.9
2017-04-20T14:10:13.155Z,13.9
2017-04-20T14:11:20.632Z,13.4
2017-04-20T14:12:33.176Z,13.7
2017-04-20T14:13:43.460Z,14.1
2017-04-20T14:14:53.850Z,13.9
2017-04-20T14:16:03.200Z,13.5
2017-04-20T14:17:13.926Z,13.7
2017-04-20T14:18:25.239Z,13.3
2017-04-20T14:19:37.058Z,12.9
2017-04-20T14:20:46.873Z,13.2
2017-04-20T14:21:55.133Z,13.4
2017-04-20T14:23:08.835Z,13.1
2017-04-20T14:24:16.764Z,13.4
2017-04-20T14:25:27.918Z,13.5
2017-04-20T14:26:39.602Z,13.2
2017-04-20T14:27:57.828Z,13.2
2017-04-20T14:29:08.765Z,13
2017-04-20T14:30:17.997Z,13.4
2017-04-20T14:31:26.268Z,13.7
2017-04-20T14:32:36.764Z,13.6
2017-04-20T14:33:46.901Z,13.7
2017-04-20T14:34:59.972Z,13.9
2017-04-20T14:36:10.782Z,13.7
2017-04-20T14:37:21.370Z,13.7
2017-04-20T14:38:31.464Z,13.3
2017-04-20T14:39:40.435Z,13.6
2017-04-20T14:40:51.661Z,13.6
2017-04-20T14:42:09.003Z,13.3
2017-04-20T14:43:24.346Z,13.1
2017-04-20T14:44:35.892Z,13.2
2017-04-20T14:45:46.868Z,12.9
2017-04-20T14:46:59.644Z,13.3
2017-04-20T14:48:13.026Z,13.4
2017-04-20T14:49:27.453Z,13.6
2017-04-20T14:50:39.352Z,13.6
2017-04-20T14:51:53.826Z,13.7
2017-04-20T14:53:07.610Z,13.6
2017-04-20T14:54:19.319Z,13.5
2017-04-20T14:55:34.870Z,13.4
2017-04-20T14:58:07.841Z,13.1
2017-04-20T14:59:20.942Z,13.4
2017-04-20T15:00:32.241Z,13.4
2017-04-20T15:01:43.668Z,13.4
2017-04-20T15:02:54.025Z,12.9
2017-04-20T15:04:07.152Z,12.8
2017-04-20T15:05:20.956Z,12.9
2017-04-20T15:06:32.108Z,12.8
2017-04-20T15:07:40.666Z,12.7
2017-04-20T15:08:53.404Z,12.9
2017-04-20T15:10:05.020Z,13.3
2017-04-20T15:11:14.568Z,13.3
2017-04-20T15:12:24.928Z,13.1
2017-04-20T15:13:36.414Z,13.4
2017-04-20T15:14:48.978Z,13.3
2017-04-20T15:15:57.531Z,13
2017-04-20T15:17:09.840Z,13.1
2017-04-20T15:18:21.919Z,13.1
2017-04-20T15:19:35.014Z,12.9
2017-04-20T15:20:48.733Z,12.7
2017-04-20T15:22:06.970Z,12.4
2017-04-20T15:23:17.104Z,12.6
2017-04-20T15:24:25.472Z,12.7
2017-04-20T15:26:53.656Z,12.9
2017-04-20T15:28:02.237Z,12.8
2017-04-20T15:29:12.276Z,12.9
2017-04-20T15:30:22.646Z,12.7
2017-04-20T15:31:31.862Z,12.8
2017-04-20T15:32:42.982Z,12.7
2017-04-20T15:33:54.845Z,12.6
2017-04-20T15:35:09.350Z,12.4
2017-04-20T15:36:21.972Z,12.5
2017-04-20T15:37:34.734Z,12.7
2017-04-20T15:38:48.253Z,12.7
2017-04-20T15:39:59.783Z,12.6
2017-04-20T15:41:12.970Z,12.9
2017-04-20T15:42:27.884Z,12.4
2017-04-20T15:43:37.126Z,12.4
2017-04-20T15:44:50.041Z,12.7
2017-04-20T15:46:05.829Z,12.7
2017-04-20T15:46:41.092Z,12.7
2017-04-20T15:47:52.526Z,12.3
2017-04-20T15:49:03.107Z,12.1
2017-04-20T15:50:20.045Z,12.3
2017-04-20T15:51:30.303Z,12.3
2017-04-20T15:52:42.541Z,12.4
2017-04-20T15:53:55.340Z,12.3
2017-04-20T15:55:05.581Z,12.4
2017-04-20T15:56:14.801Z,12.5
2017-04-20T15:57:23.197Z,12.6
2017-04-20T15:58:35.349Z,12.4
2017-04-20T15:59:44.444Z,12.1
2017-04-20T16:00:54.474Z,11.9
2017-04-20T16:02:03.836Z,12.2
2017-04-20T16:03:13.609Z,11.6
2017-04-20T16:04:23.837Z,11.5
2017-04-20T16:05:33.211Z,11.6
2017-04-20T16:06:45.634Z,12
2017-04-20T16:07:57.601Z,12.1
2017-04-20T16:09:09.954Z,12.1
2017-04-20T16:10:21.324Z,12.1
2017-04-20T16:11:34.472Z,11.6
2017-04-20T16:12:43.278Z,11.3
2017-04-20T16:13:55.770Z,11.6
2017-04-20T16:15:09.909Z,11.8
2017-04-20T16:16:24.451Z,11.9
2017-04-20T16:17:33.769Z,11.9
2017-04-20T16:18:42.777Z,11.2
2017-04-20T16:19:51.937Z,11.6
2017-04-20T16:21:01.266Z,11.6
2017-04-20T16:22:17.651Z,11.5
2017-04-20T16:23:35.716Z,11.2
2017-04-20T16:24:45.410Z,11.2
2017-04-20T16:25:53.974Z,11.2
2017-04-20T16:27:06.716Z,11.2
2017-04-20T16:28:21.804Z,11.5
2017-04-20T16:29:38.579Z,11.3
2017-04-20T16:30:52.697Z,11.5
2017-04-20T16:32:01.205Z,11.3
2017-04-20T16:33:12.607Z,11.1
2017-04-20T16:34:24.767Z,11.2
2017-04-20T16:35:35.530Z,11.4
2017-04-20T16:36:49.549Z,11.2
2017-04-20T16:38:03.278Z,11.1
2017-04-20T16:39:18.808Z,11.2
2017-04-20T16:40:31.760Z,11.4
2017-04-20T16:41:41.774Z,11.5
2017-04-20T16:42:51.009Z,11.4
2017-04-20T16:44:05.640Z,11.3
2017-04-20T16:45:15.778Z,11.3
2017-04-20T16:46:26.234Z,11.4
2017-04-20T16:47:37.144Z,11.3
2017-04-20T16:50:05.402Z,11.4
2017-04-20T16:51:17.230Z,11.1
2017-04-20T16:52:26.642Z,11
2017-04-20T16:53:39.181Z,11
2017-04-20T16:54:54.236Z,11
2017-04-20T16:56:07.571Z,11